Aérodrome :
LOGIN :

S'inscrire | Disclaimer

   EN    FR    IT 

 










Légende :    VFR   VFR Marginal   IFR   IFR Intensif   IFR Très Intensif
Visi : 
Plafond : 
>= 8 km
>= 3000ft
5 à 8 km
1000 à 3000 ft
1500m à 5 km
500 à 1000 ft
800 à 1500m
200 à 500 ft
< 800m
< 200 ft
Symboles :   Orages  Brouillard  Fortes neiges  Fortes précipitations  Vent > 20 kt
SIGMETs :   Divers  Orages  Givrage  Turbulence  Onde Orograph.  Cendres Volcan.







- Altitude de l'aérodrome : 464 ft
- Code IATA : EVX
- Voir les cartes d'approche


LFOE - Evreux

DERNIER METAR :
  • 132030Z AUTO 18006KT CAVOK 08/06 Q1028 BECMG 2000 BR

METARs EXPIRÉS :
  • 132000Z AUTO 18006KT CAVOK 08/07 Q1028 BECMG 2000 BR
  • 131930Z AUTO 17006KT CAVOK 08/07 Q1028 BECMG 2000 BR
  • 131900Z AUTO 17007KT CAVOK 08/07 Q1028 NOSIG
  • 131830Z AUTO 18005KT CAVOK 09/07 Q1028 NOSIG
  • 131800Z AUTO 17006KT CAVOK 09/07 Q1028 NOSIG

TAF TAF LFOE
Valide du 13 à 15h jusqu'au 14 à 15h UTC


131400Z 1315/1415 25007KT 9999 BKN030 BKN040
BECMG 1321/1323 2000 BR
BECMG 1401/1403 0500 FG BKN003
TEMPO 1403/1411 0300 FG VV///
BECMG 1411/1413 5000 NSW BKN005
Pas de NOTAMs connus pour ce terrain.



MET'MAP, la Météo Aéronautique d'un coup d'oeil ! - Copyright ORBIFLY Décembre 2007 - Disclaimer

ORBIFLY MET'MAP TEAM :

Programmation & Développement : Alexandra Zaïnal
Conception & Développement : Baudouin d'Aumeries
Co-Programmation & Développement : Marc-Olivier Méhu
Soutien technique & logistique : Manuel Goepfert

Contact : metmap@orbifly.com




SOURCES & CREDITS :

   NOAA